Time;durP1;ratioP1;P1;durP2;ratioP2;P2;SDS_P1;SDS_P2;PMS_P1;PMS_P2;Temp;Humidity;BMP_temperature;BMP_pressure;BME280_temperature;BME280_humidity;BME280_pressure;Samples;Min_cycle;Max_cycle;Signal;HPM_P1;HPM_P2
2021/09/28 00:00:22;;;;;;;7.93;1.45;;;;;;;15.72;71.90;102068.81;4982314;28;20069;-61
2021/09/28 00:02:48;;;;;;;10.65;1.60;;;;;;;15.68;71.77;102070.72;4982939;28;20051;-61
2021/09/28 00:05:13;;;;;;;8.93;1.77;;;;;;;16.69;69.45;102070.63;4982886;28;20043;-61
2021/09/28 00:07:39;;;;;;;11.10;2.08;;;;;;;15.72;69.91;102076.72;4982654;28;20026;-61
2021/09/28 00:10:04;;;;;;;5.75;1.45;;;;;;;15.24;72.12;102076.06;4982847;28;20109;-61
2021/09/28 00:12:30;;;;;;;12.93;2.42;;;;;;;15.47;71.89;102090.09;4982613;28;20227;-61
2021/09/28 00:14:56;;;;;;;10.95;2.05;;;;;;;15.49;70.76;102085.63;4983391;28;20039;-61
2021/09/28 00:17:21;;;;;;;6.65;1.75;;;;;;;15.51;74.51;102079.34;4981947;28;20041;-61
2021/09/28 00:19:46;;;;;;;13.80;2.38;;;;;;;15.74;71.20;102083.69;4982631;28;20075;-61
2021/09/28 00:22:12;;;;;;;18.63;2.60;;;;;;;15.32;71.31;102089.81;4981911;28;20041;-62
2021/09/28 00:24:37;;;;;;;14.13;2.47;;;;;;;15.66;70.89;102090.19;4982430;28;20207;-62
2021/09/28 00:27:03;;;;;;;13.50;1.98;;;;;;;15.87;71.99;102089.31;4982557;28;20034;-61
2021/09/28 00:29:28;;;;;;;6.45;1.50;;;;;;;15.88;71.80;102093.69;4981702;28;20031;-61
2021/09/28 00:31:54;;;;;;;13.10;2.38;;;;;;;15.50;73.29;102093.47;4982338;28;20038;-61
2021/09/28 00:34:19;;;;;;;8.52;1.70;;;;;;;15.99;74.57;102094.97;4982199;28;20046;-61
2021/09/28 00:36:44;;;;;;;9.65;2.42;;;;;;;16.26;71.57;102096.44;4964566;28;20102;-61
2021/09/28 00:39:10;;;;;;;8.93;2.10;;;;;;;15.38;71.50;102104.53;4982349;28;20034;-61
2021/09/28 00:41:35;;;;;;;11.98;1.65;;;;;;;15.74;71.06;102106.59;4982250;28;20043;-61
2021/09/28 00:44:01;;;;;;;8.57;2.15;;;;;;;15.99;75.12;102094.97;4982526;28;20094;-61
2021/09/28 00:46:26;;;;;;;12.35;2.00;;;;;;;15.62;69.16;102099.16;4981294;28;20307;-61
2021/09/28 00:48:52;;;;;;;11.00;2.13;;;;;;;16.00;73.05;102102.84;4982121;28;20026;-61
2021/09/28 00:51:17;;;;;;;20.52;2.20;;;;;;;15.82;70.69;102103.63;4982092;28;20035;-61
2021/09/28 00:53:43;;;;;;;7.28;1.38;;;;;;;17.00;72.25;102106.25;4981687;28;20031;-62
2021/09/28 00:56:11;;;;;;;5.25;1.40;;;;;;;17.44;69.49;102102.38;4982628;28;20230;-62
2021/09/28 00:58:37;;;;;;;7.53;1.45;;;;;;;17.21;70.17;102104.38;4964599;28;20058;-62
2021/09/28 01:04:24;;;;;;;10.77;2.00;;;;;;;15.76;70.47;102107.41;4962499;28;20129;-62
2021/09/28 01:06:50;;;;;;;7.53;1.73;;;;;;;16.12;71.96;102109.38;4982338;28;20043;-61
2021/09/28 01:09:15;;;;;;;10.43;2.40;;;;;;;16.01;70.09;102111.63;4980480;28;20049;-61
2021/09/28 01:11:41;;;;;;;8.93;1.73;;;;;;;15.67;70.92;102113.03;4979552;28;20372;-61
2021/09/28 01:14:07;;;;;;;8.60;1.60;;;;;;;15.97;70.22;102118.84;4980413;28;20058;-61
2021/09/28 01:16:32;;;;;;;8.73;2.88;;;;;;;15.89;71.09;102118.31;4980114;28;20050;-61
2021/09/28 01:18:57;;;;;;;8.88;1.40;;;;;;;16.53;70.70;102119.88;4980170;28;20351;-61
2021/09/28 01:21:23;;;;;;;8.95;2.42;;;;;;;16.17;69.05;102111.81;4979473;28;20098;-61
2021/09/28 01:23:48;;;;;;;6.85;1.42;;;;;;;16.48;71.83;102122.75;4963281;28;20050;-60
2021/09/28 01:26:16;;;;;;;8.70;2.13;;;;;;;17.02;69.90;102116.78;4980674;28;20317;-62
2021/09/28 01:28:44;;;;;;;7.85;1.67;;;;;;;16.47;70.00;102122.81;4981339;28;20086;-60
2021/09/28 01:31:09;;;;;;;12.13;2.13;;;;;;;16.20;69.60;102119.63;4982070;28;20253;-61
2021/09/28 01:33:35;;;;;;;7.40;1.48;;;;;;;16.03;74.32;102121.22;4979680;28;20241;-61
2021/09/28 01:36:00;;;;;;;8.40;1.30;;;;;;;16.70;71.74;102119.97;4960786;29;20046;-61
2021/09/28 01:38:26;;;;;;;7.70;1.83;;;;;;;17.72;65.96;102120.41;4960074;29;20061;-62
2021/09/28 01:40:51;;;;;;;7.22;1.50;;;;;;;16.53;69.56;102125.16;4960710;29;20090;-62
2021/09/28 01:43:19;;;;;;;7.63;1.63;;;;;;;16.15;67.89;102119.81;4960322;29;20059;-62
2021/09/28 01:45:44;;;;;;;9.20;1.73;;;;;;;15.64;70.87;102124.56;4943884;29;20132;-60
2021/09/28 01:48:09;;;;;;;9.93;2.08;;;;;;;16.24;68.82;102116.75;4961420;29;20037;-61
2021/09/28 01:50:35;;;;;;;7.95;1.63;;;;;;;15.90;68.89;102117.41;4961565;29;20058;-61
2021/09/28 01:53:00;;;;;;;6.95;1.45;;;;;;;15.82;70.64;102120.34;4966850;28;20031;-61
2021/09/28 01:55:26;;;;;;;13.63;1.90;;;;;;;15.57;71.00;102124.91;4980212;28;20034;-61
2021/09/28 01:57:56;;;;;;;5.03;1.52;;;;;;;16.75;71.62;102118.91;4980147;28;20290;-61
2021/09/28 02:00:22;;;;;;;10.15;1.80;;;;;;;16.03;69.24;102120.38;4980740;28;20101;-62
2021/09/28 02:02:47;;;;;;;6.05;1.40;;;;;;;16.56;72.74;102119.75;4980843;28;20065;-61
2021/09/28 02:05:13;;;;;;;7.15;1.73;;;;;;;15.81;71.92;102123.91;4976538;28;20055;-61
2021/09/28 02:07:38;;;;;;;8.48;1.73;;;;;;;16.01;69.10;102116.91;4961559;29;20078;-61
2021/09/28 02:10:04;;;;;;;11.75;2.20;;;;;;;15.70;73.70;102128.75;4961609;29;20031;-60
2021/09/28 02:12:30;;;;;;;4.53;1.08;;;;;;;16.07;72.14;102129.88;4961184;29;20086;-61
2021/09/28 02:14:55;;;;;;;7.03;1.65;;;;;;;16.00;69.27;102123.13;4961640;28;20311;-62
2021/09/28 02:17:20;;;;;;;8.65;1.75;;;;;;;15.93;69.30;102131.34;4980545;28;20037;-62
2021/09/28 02:19:46;;;;;;;6.47;1.50;;;;;;;16.01;71.09;102133.63;4980532;28;20089;-62
2021/09/28 02:22:11;;;;;;;3.70;1.83;;;;;;;16.51;72.15;102141.09;4980199;28;20182;-61
2021/09/28 02:24:37;;;;;;;4.15;1.40;;;;;;;15.52;71.38;102131.22;4980549;28;20084;-62
2021/09/28 02:27:02;;;;;;;9.15;1.42;;;;;;;15.88;74.15;102135.94;4963554;28;20027;-62
2021/09/28 02:29:28;;;;;;;7.05;1.90;;;;;;;15.70;69.70;102134.03;4980065;28;20034;-62
2021/09/28 02:31:53;;;;;;;13.10;2.17;;;;;;;15.62;71.21;102139.63;4980233;28;20026;-62
2021/09/28 02:34:18;;;;;;;11.15;1.80;;;;;;;15.83;69.94;102137.06;4979965;28;20228;-61
2021/09/28 02:36:44;;;;;;;14.32;2.13;;;;;;;15.35;70.34;102141.59;4980117;28;20050;-62
2021/09/28 02:39:09;;;;;;;7.25;1.63;;;;;;;15.91;72.53;102137.59;4980221;28;20031;-62
2021/09/28 02:41:36;;;;;;;5.88;1.90;;;;;;;15.87;70.79;102141.28;4979963;28;20097;-62
2021/09/28 02:44:02;;;;;;;10.32;1.92;;;;;;;15.94;70.25;102129.53;4980450;28;20102;-62
2021/09/28 02:46:27;;;;;;;11.77;2.00;;;;;;;15.81;71.55;102133.59;4959552;29;20045;-62
2021/09/28 02:48:53;;;;;;;7.32;1.60;;;;;;;15.95;69.12;102130.38;4961193;29;20234;-62
2021/09/28 02:51:18;;;;;;;19.67;2.40;;;;;;;16.03;70.61;102149.44;4960813;29;20106;-62
2021/09/28 02:53:44;;;;;;;6.72;1.42;;;;;;;15.59;68.91;102141.53;4961269;29;20034;-64
2021/09/28 02:56:09;;;;;;;9.70;2.00;;;;;;;15.44;73.04;102141.22;4961151;29;20344;-64
2021/09/28 02:58:35;;;;;;;5.60;1.38;;;;;;;15.52;71.65;102138.31;4965536;28;20113;-64
2021/09/28 03:01:00;;;;;;;7.20;1.85;;;;;;;15.36;70.56;102140.69;4980438;28;20041;-64
2021/09/28 03:03:26;;;;;;;10.52;1.90;;;;;;;14.99;71.18;102142.16;4979460;28;20063;-64
2021/09/28 03:05:51;;;;;;;3.15;1.10;;;;;;;16.27;71.83;102145.69;4980392;28;20441;-64
2021/09/28 03:08:16;;;;;;;7.75;1.52;;;;;;;15.74;70.30;102149.72;4979972;28;20106;-64
2021/09/28 03:10:43;;;;;;;7.78;1.70;;;;;;;15.59;70.11;102150.34;4982670;28;20104;-64
2021/09/28 03:13:09;;;;;;;6.53;1.50;;;;;;;15.51;71.41;102152.41;4984332;28;20034;-65
2021/09/28 03:15:35;;;;;;;10.65;2.17;;;;;;;15.63;72.51;102151.06;4983581;28;20050;-64
2021/09/28 03:18:00;;;;;;;7.80;1.92;;;;;;;15.37;69.98;102158.22;4983673;28;20030;-64
2021/09/28 03:20:26;;;;;;;8.25;1.60;;;;;;;15.68;70.50;102157.00;4983509;28;20038;-64
2021/09/28 03:22:51;;;;;;;5.93;1.63;;;;;;;15.79;71.52;102149.53;4963976;28;20035;-64
2021/09/28 03:25:17;;;;;;;8.80;1.80;;;;;;;15.88;72.12;102154.44;4983151;28;20048;-64
2021/09/28 03:27:42;;;;;;;9.20;1.95;;;;;;;15.33;70.94;102154.00;4983886;28;20224;-64
2021/09/28 03:30:08;;;;;;;7.55;1.38;;;;;;;15.38;69.81;102157.31;4983753;28;20097;-64
2021/09/28 03:32:36;;;;;;;8.23;1.60;;;;;;;15.24;70.80;102149.94;4982472;28;20031;-64
2021/09/28 03:35:02;;;;;;;9.50;2.35;;;;;;;15.27;70.67;102157.75;4983474;28;20046;-64
2021/09/28 03:37:27;;;;;;;13.82;2.10;;;;;;;16.05;69.97;102159.00;4982932;28;20043;-64
2021/09/28 03:39:53;;;;;;;3.72;1.13;;;;;;;15.64;68.82;102168.63;4983641;28;20081;-64
2021/09/28 03:42:18;;;;;;;10.98;2.20;;;;;;;15.43;69.57;102165.06;4983141;28;20341;-64
2021/09/28 03:44:44;;;;;;;10.57;2.05;;;;;;;14.95;72.10;102167.78;4983268;28;20056;-64
2021/09/28 03:47:09;;;;;;;8.63;1.58;;;;;;;15.32;71.45;102169.00;4984021;28;20314;-64
2021/09/28 03:49:35;;;;;;;3.97;1.00;;;;;;;16.30;72.15;102171.16;4982654;28;20054;-64
2021/09/28 03:52:00;;;;;;;4.30;1.02;;;;;;;17.18;69.99;102167.22;4983472;28;20109;-64
2021/09/28 03:54:25;;;;;;;10.20;2.45;;;;;;;15.90;69.11;102165.78;4982777;28;20098;-64
2021/09/28 03:56:51;;;;;;;8.10;1.58;;;;;;;16.75;70.68;102164.72;4983251;28;20034;-64
2021/09/28 03:59:16;;;;;;;11.73;1.63;;;;;;;15.86;71.66;102172.13;4982442;28;20037;-64
2021/09/28 04:01:42;;;;;;;9.80;1.77;;;;;;;15.95;70.96;102177.94;4982831;28;20409;-64
2021/09/28 04:04:07;;;;;;;6.88;1.85;;;;;;;16.67;70.77;102178.31;4983095;28;20050;-64
2021/09/28 04:06:33;;;;;;;9.55;1.50;;;;;;;15.83;70.74;102177.53;4982981;28;20027;-64
2021/09/28 04:08:58;;;;;;;10.55;2.08;;;;;;;16.38;68.76;102181.41;4982727;28;20313;-64
2021/09/28 04:11:24;;;;;;;9.35;1.90;;;;;;;16.36;68.74;102176.16;4982848;28;20035;-64
2021/09/28 04:13:49;;;;;;;5.00;1.50;;;;;;;16.22;68.73;102187.34;4981498;28;20037;-64
2021/09/28 04:16:16;;;;;;;7.53;1.35;;;;;;;16.28;68.34;102186.19;4982332;28;20249;-64
2021/09/28 04:18:42;;;;;;;4.28;1.40;;;;;;;16.25;68.57;102181.91;4982690;28;20041;-64
2021/09/28 04:21:08;;;;;;;10.50;2.47;;;;;;;15.90;69.18;102180.78;4982101;28;20098;-64
2021/09/28 04:23:33;;;;;;;4.88;1.55;;;;;;;16.10;70.69;102183.44;4981939;28;20046;-64
2021/09/28 04:25:59;;;;;;;13.52;2.25;;;;;;;16.00;68.29;102176.81;4982660;28;20347;-64
2021/09/28 04:28:25;;;;;;;4.25;1.52;;;;;;;16.74;67.37;102173.59;4965172;28;20038;-64
2021/09/28 04:30:50;;;;;;;9.32;1.70;;;;;;;17.12;65.79;102175.41;4982796;28;20033;-64
2021/09/28 04:33:15;;;;;;;6.50;1.60;;;;;;;16.38;67.29;102181.41;4963459;28;20334;-64
2021/09/28 04:35:41;;;;;;;4.15;1.20;;;;;;;17.06;69.53;102182.75;4963200;29;20073;-64
2021/09/28 04:38:06;;;;;;;10.02;1.98;;;;;;;16.18;69.72;102182.25;4962118;29;20331;-64
2021/09/28 04:40:32;;;;;;;4.72;1.20;;;;;;;16.64;70.58;102186.38;4962726;29;20043;-64
2021/09/28 04:42:57;;;;;;;11.90;2.22;;;;;;;15.95;68.50;102178.78;4963195;29;20042;-64
2021/09/28 04:45:22;;;;;;;6.43;1.30;;;;;;;16.20;71.92;102178.63;4980465;28;20038;-64
2021/09/28 04:47:48;;;;;;;10.43;2.35;;;;;;;15.78;69.92;102176.88;4982048;28;20324;-64
2021/09/28 04:50:13;;;;;;;11.52;2.00;;;;;;;16.49;70.89;102187.06;4982144;28;20027;-64
2021/09/28 04:52:39;;;;;;;11.57;2.22;;;;;;;16.78;67.63;102179.63;4981735;28;20109;-64
2021/09/28 04:55:05;;;;;;;9.77;1.85;;;;;;;16.47;67.83;102187.13;4981858;28;20034;-64
2021/09/28 04:57:30;;;;;;;2.13;1.25;;;;;;;17.36;68.73;102182.22;4981527;28;20043;-64
2021/09/28 04:59:55;;;;;;;8.18;2.00;;;;;;;16.99;67.16;102191.00;4981862;28;20026;-64
2021/09/28 05:02:21;;;;;;;3.97;1.10;;;;;;;16.88;68.33;102194.16;4974337;28;20352;-64
2021/09/28 05:04:46;;;;;;;5.78;1.83;;;;;;;16.24;70.09;102189.91;4974846;28;20051;-64
2021/09/28 05:07:12;;;;;;;6.82;1.92;;;;;;;15.56;69.60;102187.41;4981622;28;20045;-64
2021/09/28 05:09:37;;;;;;;8.98;1.75;;;;;;;15.86;70.63;102195.91;4981333;28;20029;-64
2021/09/28 05:12:06;;;;;;;7.60;1.40;;;;;;;16.26;70.21;102191.59;4981976;28;20039;-64
2021/09/28 05:14:32;;;;;;;5.57;1.27;;;;;;;16.38;70.09;102194.63;4981116;28;20053;-64
2021/09/28 05:16:57;;;;;;;10.57;1.75;;;;;;;16.38;68.01;102192.81;4976541;28;20214;-64
2021/09/28 05:19:23;;;;;;;9.98;2.10;;;;;;;16.17;70.71;102188.47;4981436;28;20039;-64
2021/09/28 05:21:48;;;;;;;5.93;1.63;;;;;;;16.48;70.04;102199.44;4981482;28;20085;-64
2021/09/28 05:24:14;;;;;;;10.05;2.50;;;;;;;15.79;69.54;102198.84;4981467;28;20045;-64
2021/09/28 05:26:39;;;;;;;8.00;2.00;;;;;;;16.22;67.97;102197.91;4981364;28;20334;-64
2021/09/28 05:29:04;;;;;;;12.40;2.10;;;;;;;15.54;70.61;102197.19;4979276;28;20039;-64
2021/09/28 05:31:30;;;;;;;13.32;2.45;;;;;;;15.25;69.70;102199.19;4978290;28;20396;-64
2021/09/28 05:33:55;;;;;;;8.70;1.90;;;;;;;14.83;72.75;102205.16;4979695;28;20045;-64
2021/09/28 05:36:21;;;;;;;9.25;1.50;;;;;;;16.02;69.14;102211.09;4976918;28;20081;-64
2021/09/28 05:38:46;;;;;;;3.40;1.45;;;;;;;16.86;70.49;102214.53;4978879;28;20097;-64
2021/09/28 05:41:11;;;;;;;5.28;1.40;;;;;;;17.68;66.85;102208.91;4978461;28;20030;-64
2021/09/28 05:43:38;;;;;;;8.23;1.48;;;;;;;17.34;67.54;102204.41;4978786;28;20035;-64
2021/09/28 05:46:04;;;;;;;7.60;1.77;;;;;;;17.84;66.43;102219.63;4977864;28;20046;-64
2021/09/28 05:48:29;;;;;;;10.40;1.90;;;;;;;16.81;67.67;102213.88;4978583;28;20035;-64
2021/09/28 05:50:55;;;;;;;3.35;1.30;;;;;;;17.45;67.55;102213.53;4979730;28;20066;-64
2021/09/28 05:53:20;;;;;;;3.97;1.40;;;;;;;17.16;69.02;102212.28;4978585;28;20319;-64
2021/09/28 05:55:46;;;;;;;2.85;0.98;;;;;;;17.76;66.70;102221.81;4979230;28;20057;-64
2021/09/28 05:58:11;;;;;;;5.57;1.88;;;;;;;16.93;68.69;102221.28;4978827;28;20030;-64
2021/09/28 06:00:36;;;;;;;5.38;1.55;;;;;;;17.60;67.23;102211.94;4978947;28;20315;-64
2021/09/28 06:03:02;;;;;;;10.27;2.00;;;;;;;17.06;67.77;102217.16;4979401;28;20035;-64
2021/09/28 06:05:28;;;;;;;6.60;1.77;;;;;;;17.45;66.75;102213.53;4978668;28;20050;-64
2021/09/28 06:07:53;;;;;;;5.35;2.00;;;;;;;18.08;64.77;102222.00;4961917;28;20089;-64
2021/09/28 06:10:18;;;;;;;7.45;1.92;;;;;;;17.83;62.25;102224.06;4977482;28;20045;-64
2021/09/28 06:12:44;;;;;;;5.93;1.92;;;;;;;17.20;65.09;102220.94;4978666;28;20065;-64
2021/09/28 06:15:10;;;;;;;5.97;1.63;;;;;;;18.20;65.46;102226.69;4977557;28;20217;-64
2021/09/28 06:17:35;;;;;;;7.07;1.92;;;;;;;17.93;66.18;102223.66;4977482;28;20043;-64
2021/09/28 06:20:01;;;;;;;5.30;1.60;;;;;;;18.14;62.44;102219.91;4978692;28;20070;-64
2021/09/28 06:22:26;;;;;;;9.00;2.58;;;;;;;17.25;65.42;102218.94;4977972;28;20039;-64
2021/09/28 06:24:55;;;;;;;9.95;2.38;;;;;;;17.37;66.05;102221.00;4978850;28;20043;-64
2021/09/28 06:27:21;;;;;;;7.35;2.03;;;;;;;17.89;63.96;102224.75;4978556;28;20050;-64
2021/09/28 06:29:47;;;;;;;10.20;1.98;;;;;;;17.87;62.38;102216.88;4977844;28;20046;-64
2021/09/28 06:32:12;;;;;;;7.50;1.85;;;;;;;18.11;63.34;102217.41;4971000;28;20057;-64
2021/09/28 06:34:37;;;;;;;5.57;1.80;;;;;;;18.26;63.83;102228.19;4975296;28;20389;-64
2021/09/28 06:37:03;;;;;;;5.60;1.65;;;;;;;18.43;64.00;102225.53;4960183;28;21107;-65
2021/09/28 06:39:29;;;;;;;15.40;2.25;;;;;;;18.47;62.84;102228.88;4974753;28;20295;-64
2021/09/28 06:41:54;;;;;;;7.70;1.85;;;;;;;18.20;61.35;102230.19;4972155;28;20046;-65
2021/09/28 06:44:19;;;;;;;6.53;2.70;;;;;;;18.05;61.43;102235.44;4979512;28;20050;-65
2021/09/28 06:46:45;;;;;;;6.50;2.17;;;;;;;17.86;62.92;102236.34;4987063;28;20045;-66
2021/09/28 06:49:10;;;;;;;12.05;2.30;;;;;;;18.34;60.74;102229.50;4984027;28;20042;-65
2021/09/28 06:51:35;;;;;;;16.40;2.45;;;;;;;18.71;63.20;102232.03;4964583;28;20031;-64
2021/09/28 06:54:01;;;;;;;9.60;1.80;;;;;;;18.93;60.72;102223.81;4984391;28;20042;-65
2021/09/28 06:56:28;;;;;;;6.43;2.03;;;;;;;18.76;61.12;102228.19;4984468;28;20447;-65
2021/09/28 06:58:53;;;;;;;9.30;2.30;;;;;;;19.18;60.80;102221.53;4982513;28;20054;-65
2021/09/28 07:01:18;;;;;;;8.18;2.30;;;;;;;19.47;58.70;102219.03;4966412;28;20342;-65
2021/09/28 07:03:44;;;;;;;16.48;2.78;;;;;;;20.12;60.54;102224.19;4979368;28;20047;-65
2021/09/28 07:06:09;;;;;;;9.32;2.03;;;;;;;20.07;59.69;102220.09;4983247;28;20047;-65
2021/09/28 07:08:35;;;;;;;12.82;2.25;;;;;;;20.18;59.38;102216.81;4956150;28;20453;-65
2021/09/28 07:11:00;;;;;;;15.63;2.40;;;;;;;20.48;60.18;102233.59;4969655;28;20057;-65
2021/09/28 07:13:25;;;;;;;13.98;2.55;;;;;;;20.77;59.88;102230.94;4972096;28;20039;-65
2021/09/28 07:15:51;;;;;;;9.55;2.88;;;;;;;20.52;55.71;102231.59;4968413;28;20039;-64
2021/09/28 07:18:16;;;;;;;7.82;2.25;;;;;;;20.56;58.78;102233.09;4991803;28;20038;-64
2021/09/28 07:20:42;;;;;;;13.65;2.53;;;;;;;20.99;58.42;102241.16;4983344;28;20042;-65
2021/09/28 07:23:08;;;;;;;9.70;2.40;;;;;;;21.49;57.68;102238.91;4982530;28;20038;-66
2021/09/28 07:25:33;;;;;;;8.75;2.90;;;;;;;21.44;56.93;102241.81;4983310;28;20042;-66
2021/09/28 07:28:00;;;;;;;9.20;2.45;;;;;;;21.74;56.50;102245.28;4966861;28;20034;-66
2021/09/28 07:30:29;;;;;;;7.32;2.08;;;;;;;22.08;55.97;102253.72;4983971;28;20525;-66
2021/09/28 07:32:54;;;;;;;9.57;2.50;;;;;;;22.05;55.91;102242.28;4984431;28;20046;-66
2021/09/28 07:35:20;;;;;;;11.65;2.65;;;;;;;22.18;56.06;102255.66;4983107;28;20051;-65
2021/09/28 07:37:45;;;;;;;8.70;2.97;;;;;;;22.40;53.88;102247.06;4984097;28;20035;-65
2021/09/28 07:40:11;;;;;;;15.30;3.38;;;;;;;22.73;54.03;102245.69;4983603;28;20042;-65
2021/09/28 07:42:36;;;;;;;14.00;3.08;;;;;;;22.99;53.30;102240.31;4983971;28;20245;-65
2021/09/28 07:45:03;;;;;;;16.02;2.55;;;;;;;22.85;53.82;102243.97;4984924;28;20205;-67
2021/09/28 07:47:29;;;;;;;11.77;2.72;;;;;;;22.93;51.75;102240.75;4989516;28;20031;-65
2021/09/28 07:49:55;;;;;;;16.10;2.88;;;;;;;23.48;51.88;102242.13;4983739;28;20234;-66
2021/09/28 07:52:20;;;;;;;12.80;2.72;;;;;;;22.97;51.66;102248.44;4984908;28;20053;-65
2021/09/28 07:54:45;;;;;;;11.38;2.50;;;;;;;22.44;51.33;102239.69;4993042;28;20066;-65
2021/09/28 07:57:11;;;;;;;13.05;3.25;;;;;;;23.77;49.75;102249.81;4977591;28;20105;-65
2021/09/28 07:59:38;;;;;;;9.23;2.38;;;;;;;25.17;46.81;102254.25;4980692;28;20060;-63
2021/09/28 08:02:03;;;;;;;13.55;2.70;;;;;;;25.36;44.96;102248.28;4983387;28;20141;-63
2021/09/28 08:04:28;;;;;;;11.10;2.53;;;;;;;26.12;42.72;102248.28;4963629;28;20055;-63
2021/09/28 08:06:55;;;;;;;14.27;2.88;;;;;;;26.10;45.00;102253.78;4984410;28;20038;-63
2021/09/28 08:09:20;;;;;;;9.07;2.72;;;;;;;26.37;42.86;102252.41;4982679;28;20038;-64
2021/09/28 08:11:46;;;;;;;19.48;2.80;;;;;;;26.65;41.37;102256.28;4965501;28;20334;-64
2021/09/28 08:14:11;;;;;;;11.40;3.17;;;;;;;27.20;43.27;102250.56;4966549;28;20062;-64
2021/09/28 08:16:36;;;;;;;11.27;3.00;;;;;;;26.69;43.77;102254.19;4979351;28;20146;-64
2021/09/28 08:19:03;;;;;;;9.38;2.78;;;;;;;27.13;43.31;102244.84;4981548;28;20069;-63
2021/09/28 08:21:28;;;;;;;16.73;3.08;;;;;;;26.79;43.95;102255.06;4964403;28;20042;-63
2021/09/28 08:23:54;;;;;;;13.05;2.63;;;;;;;27.20;43.44;102251.38;4983230;28;20085;-64
2021/09/28 08:29:09;;;;;;;21.00;3.38;;;;;;;27.81;42.15;102254.06;4981275;28;20039;-64
2021/09/28 08:31:42;;;;;;;24.25;3.13;;;;;;;27.50;42.23;102257.69;4982310;28;20034;-64
2021/09/28 08:34:08;;;;;;;9.60;2.50;;;;;;;27.66;41.60;102257.16;4964593;28;20077;-65
2021/09/28 08:36:34;;;;;;;10.60;2.90;;;;;;;27.89;41.35;102264.97;4982775;28;20034;-65
2021/09/28 08:38:59;;;;;;;14.00;3.22;;;;;;;27.82;42.08;102269.22;4981684;28;20026;-64
2021/09/28 08:41:25;;;;;;;14.95;2.92;;;;;;;27.33;42.10;102250.31;4981754;28;20039;-64
2021/09/28 08:43:50;;;;;;;10.70;2.63;;;;;;;27.59;40.02;102266.78;4981441;28;20069;-64
2021/09/28 08:46:16;;;;;;;15.48;2.72;;;;;;;28.04;40.67;102265.41;4986020;28;20064;-64
2021/09/28 08:48:43;;;;;;;20.30;3.08;;;;;;;28.30;40.54;102271.88;4985939;28;20077;-64
2021/09/28 08:51:09;;;;;;;12.23;2.70;;;;;;;28.45;40.48;102257.97;4983638;28;20345;-64
2021/09/28 08:53:36;;;;;;;16.20;3.20;;;;;;;28.86;39.36;102262.13;4980313;28;20035;-64
2021/09/28 08:56:01;;;;;;;9.85;2.38;;;;;;;28.48;36.45;102263.91;4986457;28;20030;-64
2021/09/28 08:58:28;;;;;;;9.52;2.47;;;;;;;29.70;38.29;102268.31;4980369;28;20278;-64
2021/09/28 09:00:53;;;;;;;13.30;3.40;;;;;;;29.77;37.82;102260.47;4979808;28;20039;-64
2021/09/28 09:03:25;;;;;;;6.72;2.83;;;;;;;29.52;38.42;102256.66;4962501;28;20038;-63
2021/09/28 09:05:51;;;;;;;8.70;2.58;;;;;;;29.70;36.69;102256.66;4981264;28;20058;-64
2021/09/28 09:08:16;;;;;;;7.25;2.50;;;;;;;29.10;36.41;102261.56;4982102;28;20038;-65
2021/09/28 09:10:42;;;;;;;10.18;2.70;;;;;;;29.36;37.74;102265.44;4964997;28;20039;-64
2021/09/28 09:13:07;;;;;;;8.55;2.50;;;;;;;29.67;38.05;102264.06;4976534;28;20073;-64
2021/09/28 09:15:34;;;;;;;8.88;3.17;;;;;;;30.53;35.87;102265.31;4981972;28;20030;-64
2021/09/28 09:18:01;;;;;;;13.38;3.33;;;;;;;30.44;36.67;102255.47;4986434;28;20047;-64
2021/09/28 09:20:29;;;;;;;8.13;2.92;;;;;;;30.23;36.10;102255.78;4974159;28;20111;-64
2021/09/28 09:22:55;;;;;;;;;;;;;;;30.11;37.39;102251.63;4982671;28;20349;-65
2021/09/28 09:25:23;;;;;;;10.10;3.28;;;;;;;30.03;37.34;102252.44;4981730;28;19937;-64
2021/09/28 09:27:48;;;;;;;14.27;3.15;;;;;;;30.67;36.57;102246.78;4983793;28;20223;-64
2021/09/28 09:30:21;;;;;;;12.40;2.90;;;;;;;31.15;35.53;102250.75;4982077;28;20030;-64
2021/09/28 09:32:59;;;;;;;7.90;2.60;;;;;;;31.36;35.02;102251.13;4981369;28;20102;-64
2021/09/28 09:35:29;;;;;;;6.82;3.22;;;;;;;30.46;35.69;102245.31;4981676;28;20054;-64
2021/09/28 09:38:11;;;;;;;8.93;2.97;;;;;;;31.26;35.11;102241.47;4982010;28;20062;-64
2021/09/28 09:40:37;;;;;;;13.43;3.28;;;;;;;31.30;35.22;102240.13;4986711;28;20034;-64
2021/09/28 09:43:03;;;;;;;7.82;3.22;;;;;;;30.55;35.57;102244.38;4981610;28;20085;-64
2021/09/28 09:45:28;;;;;;;11.73;3.33;;;;;;;31.02;35.16;102239.53;4967568;28;20101;-62
2021/09/28 09:47:54;;;;;;;11.60;3.13;;;;;;;31.20;35.90;102232.16;4986737;28;20038;-63
2021/09/28 09:50:20;;;;;;;8.48;2.67;;;;;;;30.45;35.76;102235.50;4984767;28;20045;-63
2021/09/28 09:52:58;;;;;;;12.63;2.95;;;;;;;30.75;36.31;102238.72;4983611;28;20042;-64
2021/09/28 09:55:31;;;;;;;16.52;3.47;;;;;;;30.59;36.35;102234.09;4980884;28;20037;-64
2021/09/28 09:57:56;;;;;;;27.00;3.03;;;;;;;30.99;34.03;102230.72;4981084;28;20211;-64
2021/09/28 10:00:22;;;;;;;9.68;2.80;;;;;;;30.69;36.32;102237.53;4980704;28;20089;-65
2021/09/28 10:02:47;;;;;;;17.73;3.20;;;;;;;30.55;36.69;102235.41;4961009;28;20049;-66
2021/09/28 10:05:13;;;;;;;12.57;3.38;;;;;;;30.72;36.11;102233.63;4980765;28;20058;-65
2021/09/28 10:07:38;;;;;;;9.43;3.10;;;;;;;29.97;36.11;102235.00;4978577;28;20038;-65
2021/09/28 10:10:08;;;;;;;12.60;3.40;;;;;;;30.33;36.94;102234.94;4963734;28;20038;-63
2021/09/28 10:12:36;;;;;;;18.92;3.17;;;;;;;30.19;37.51;102230.94;4964142;28;20037;-63
2021/09/28 10:15:12;;;;;;;14.82;3.08;;;;;;;30.83;35.23;102227.94;4980156;28;20042;-61
2021/09/28 10:17:43;;;;;;;12.30;2.70;;;;;;;30.07;37.05;102229.53;4979670;28;20114;-61
2021/09/28 10:20:29;;;;;;;16.85;3.67;;;;;;;29.73;37.75;102219.41;4965192;28;20034;-64
2021/09/28 10:23:14;;;;;;;6.95;2.83;;;;;;;30.38;35.99;102220.94;4980841;28;20054;-64
2021/09/28 10:25:45;;;;;;;10.75;2.95;;;;;;;29.77;37.21;102217.28;4978653;28;20049;-65
2021/09/28 10:28:11;;;;;;;11.25;2.50;;;;;;;30.16;36.29;102217.75;4963652;28;20346;-65
2021/09/28 10:30:38;;;;;;;10.30;3.33;;;;;;;30.16;37.09;102216.91;4979373;28;20094;-64
2021/09/28 10:33:22;;;;;;;6.50;2.95;;;;;;;29.20;38.29;102214.88;4980891;28;20296;-63
2021/09/28 10:35:56;;;;;;;15.00;3.30;;;;;;;28.47;37.52;102219.13;4981658;28;20034;-63
2021/09/28 10:39:01;;;;;;;17.55;3.70;;;;;;;29.31;38.21;102211.06;4979951;28;20042;-64
2021/09/28 10:41:43;;;;;;;7.30;2.53;;;;;;;26.97;41.47;102206.91;4922412;29;20044;-63
2021/09/28 10:44:29;;;;;;;13.05;3.13;;;;;;;25.58;42.46;102201.81;4921859;29;20051;-63
2021/09/28 10:46:58;;;;;;;11.05;3.28;;;;;;;25.86;41.62;102203.00;4962677;28;20046;-64
2021/09/28 10:49:28;;;;;;;9.35;2.83;;;;;;;25.78;40.66;102202.81;4978724;28;20042;-63
2021/09/28 10:52:21;;;;;;;14.10;2.92;;;;;;;25.77;41.03;102195.72;4980072;28;20337;-63
2021/09/28 10:55:12;;;;;;;7.88;2.30;;;;;;;25.27;42.79;102190.94;4977076;28;20098;-62
2021/09/28 10:57:58;;;;;;;17.10;2.75;;;;;;;25.13;41.92;102189.34;4978501;28;20089;-63
2021/09/28 11:00:25;;;;;;;9.15;2.30;;;;;;;25.41;42.85;102184.41;4978747;28;20042;-64
2021/09/28 11:02:57;;;;;;;10.82;2.80;;;;;;;25.18;43.28;102178.25;4979309;28;20093;-63
2021/09/28 11:05:29;;;;;;;9.80;2.60;;;;;;;24.52;44.64;102177.22;4978104;28;20222;-64
2021/09/28 11:07:55;;;;;;;10.30;2.63;;;;;;;25.09;44.21;102175.31;4975998;28;20041;-63
2021/09/28 11:10:21;;;;;;;12.63;2.25;;;;;;;24.59;45.67;102176.72;4979228;28;20043;-64
2021/09/28 11:12:46;;;;;;;19.15;2.78;;;;;;;24.71;44.23;102178.44;4976471;28;20109;-63
2021/09/28 11:15:17;;;;;;;9.63;2.22;;;;;;;24.82;42.19;102175.72;4978678;28;20438;-64
2021/09/28 11:17:43;;;;;;;24.23;3.58;;;;;;;25.16;45.22;102172.13;4977676;28;20038;-65
2021/09/28 11:20:19;;;;;;;22.30;2.63;;;;;;;24.78;44.72;102170.75;4978588;28;20309;-63
2021/09/28 11:22:53;;;;;;;16.42;2.40;;;;;;;24.77;46.33;102164.53;4975796;28;20046;-63
2021/09/28 11:25:19;;;;;;;8.15;1.80;;;;;;;24.74;46.17;102161.25;4978013;28;20035;-64